Aeroporto :
LOGIN :

Iscrizione | Disclaimer

   EN    FR    IT 

 










Sommario :    VFR   VFR Marginale   IFR   IFR Intensivo   IFR Molto Intensivo
Visibilità : 
Base nubi : 
>= 8 km
>= 3000ft
5 / 8 km
1000 / 3000 ft
1500m / 5 km
500 / 1000 ft
800 / 1500m
200 / 500 ft
< 800m
< 200 ft
Simboli :   Temporali  Nebbia  Neve Forte  Precipitazioni Forti  Vento > 20 kt
SIGMETs :   Varie  Temporali  Ghiacco  Turbolenza  Onda orograficha  Ceneri Vulcaniche






- Altitudine del aeroporto : 194 ft


EBCV - Chièvres

ULTIMO METAR :
  • 171825Z AUTO 24018KT 9999 BKN022/// 08/05 Q1016 WHT

METARs OBSOLETI :
  • 171816Z AUTO 24017KT 9999 -RA BKN024/// 08/05 Q1016 WHT
  • 171755Z AUTO 24017KT 9999 BKN025/// 08/04 Q1016 BLU
  • 171725Z AUTO 24018G29KT 9999 BKN035/// 08/04 Q1015 BLU
  • 171655Z AUTO 25015KT 9999 -DZ BKN037/// 08/04 Q1015 BLU
  • 171625Z AUTO 24019G36KT 9999 -RA BKN041/// 10/02 Q1014 BLU
  • 171555Z AUTO 24012KT 9999 OVC042/// 10/03 Q1014 BLU

TAF TAF EBCV
Valido dal 17 a 19 ore il 18 a 07 ore UTC


171541Z 1719/1807 24017G30KT 9999 SCT020 BKN025
TEMPO 1719/1723 24020G35KT 5000 -SHRA BKN015TCU BKN030
PROB30
TEMPO 1719/1720 24025G40KT 3000 -TSRAGS BKN010CB BKN020
BECMG 1723/1801 FEW020
PROB30
TEMPO 1801/1807 24020G35KT 5000 -SHRA SCT015TCU SCT035 BY EBWM



MetMap, La meteo Aeronautica in un colpo d'occhio ! - Copyright ORBIFLY Dicembre 2007 - Disclaimer

ORBIFLY MET'MAP TEAM :

Programmazione e sviluppo : Alexandra Zaïnal
Concezione : Baudouin d'Aumeries
Aiuto per la programmazione : Marc-Olivier Méhu
Supporto tecnico e logistico : Manuel Goepfert
Aiuto per la traduzione : Arnaldo La Scala

Contatto : metmap@orbifly.com




FONTI E CREDITI :

   NOAA